createdAt,value
2018-09-06T00:44:34.303Z,97.40
2018-09-06T00:47:02.864Z,99.90
2018-09-06T00:49:31.162Z,99.90
2018-09-06T00:51:59.453Z,99.90
2018-09-06T00:54:27.791Z,99.90
2018-09-06T00:56:56.088Z,99.90
2018-09-06T00:59:24.947Z,99.90
2018-09-06T11:14:51.206Z,99.90
2018-09-06T12:51:09.361Z,84.00
2018-09-06T12:58:33.759Z,99.90
2018-09-06T13:01:02.073Z,99.90
2018-09-06T13:03:30.396Z,99.90
2018-09-06T13:05:58.710Z,99.90
2018-09-06T13:08:27.028Z,99.90
2018-09-06T13:10:55.329Z,99.90
2018-09-06T13:13:23.678Z,99.90
2018-09-06T13:15:51.951Z,99.90
2018-09-06T13:18:20.302Z,99.90
2018-09-06T13:20:48.579Z,99.90
2018-09-06T13:23:16.884Z,99.90
2018-09-06T13:25:45.193Z,99.90
2018-09-06T13:28:13.532Z,99.90
2018-09-06T13:30:41.972Z,99.90
2018-09-06T13:33:10.287Z,99.90
2018-09-06T13:35:38.659Z,99.90
2018-09-06T13:38:06.932Z,99.90
2018-09-06T13:40:35.222Z,99.90
2018-09-06T13:43:03.536Z,99.90
2018-09-06T13:45:31.828Z,99.90
2018-09-06T13:48:00.119Z,99.90
2018-09-06T13:50:28.426Z,99.90
2018-09-06T13:52:56.759Z,99.90
2018-09-06T13:55:25.064Z,99.90
2018-09-06T13:57:53.364Z,99.90
2018-09-06T14:00:21.668Z,99.90
2018-09-06T14:02:49.974Z,99.90
2018-09-06T14:05:18.271Z,99.90
2018-09-06T14:07:46.615Z,99.90
2018-09-06T14:10:14.945Z,99.90
2018-09-06T14:12:43.267Z,99.50
2018-09-06T14:15:11.571Z,98.50
2018-09-06T14:17:39.913Z,99.40
2018-09-06T14:20:08.228Z,97.50
2018-09-06T14:22:36.534Z,97.20
2018-09-06T14:25:04.843Z,98.30
2018-09-06T14:27:33.175Z,98.00
2018-09-06T14:30:01.577Z,98.70
2018-09-06T14:32:30.076Z,98.50
2018-09-06T14:34:58.831Z,97.80
2018-09-06T14:37:27.190Z,98.80
2018-09-06T14:39:55.538Z,99.10
2018-09-06T14:42:23.873Z,98.00
2018-09-06T14:44:52.187Z,98.50
2018-09-06T14:47:20.493Z,99.10
2018-09-06T14:49:48.803Z,97.90
2018-09-06T14:52:17.120Z,98.30
2018-09-06T14:54:45.588Z,98.50
2018-09-06T14:57:13.900Z,98.30
2018-09-06T14:59:42.223Z,98.30
2018-09-06T15:02:10.605Z,98.00
2018-09-06T15:04:38.922Z,97.30
2018-09-06T15:07:07.231Z,98.00
2018-09-06T15:09:35.560Z,98.00
2018-09-06T15:12:03.887Z,98.00
2018-09-06T15:14:32.191Z,97.10
2018-09-06T15:17:00.799Z,97.30
2018-09-06T15:19:29.119Z,97.80
2018-09-06T15:21:57.444Z,98.30
2018-09-06T15:24:25.767Z,98.20
2018-09-06T15:26:54.178Z,96.90
2018-09-06T15:29:22.499Z,97.30
2018-09-06T15:31:50.831Z,95.70
2018-09-06T15:34:19.190Z,95.70
2018-09-06T15:36:47.543Z,96.00
2018-09-06T15:39:15.871Z,96.00
2018-09-06T15:41:44.200Z,94.10
2018-09-06T15:44:12.511Z,94.80
2018-09-06T15:46:40.916Z,94.60
2018-09-06T15:49:09.260Z,94.60
2018-09-06T15:51:37.576Z,93.90
2018-09-06T15:54:06.120Z,93.90
2018-09-06T15:56:34.447Z,94.00
2018-09-06T15:59:02.791Z,94.20
2018-09-06T16:01:31.127Z,94.60
2018-09-06T16:03:59.465Z,93.80
2018-09-06T16:06:27.996Z,93.40
2018-09-06T16:08:56.319Z,93.00
2018-09-06T16:11:24.663Z,92.40
2018-09-06T17:57:34.008Z,91.70
2018-09-06T18:00:02.353Z,91.80
2018-09-06T18:02:30.773Z,92.10
2018-09-06T18:04:59.232Z,92.10
2018-09-06T18:07:27.606Z,92.20
2018-09-06T18:09:55.935Z,92.10
2018-09-06T18:12:24.301Z,92.00
2018-09-06T18:14:52.622Z,92.30
2018-09-06T18:17:21.021Z,92.00
2018-09-06T18:19:49.295Z,92.60
2018-09-06T18:22:17.583Z,92.10
2018-09-06T18:24:46.095Z,92.10
2018-09-06T18:27:14.401Z,92.30
2018-09-06T18:29:42.783Z,92.50
2018-09-06T18:32:12.039Z,92.60
2018-09-06T18:34:40.370Z,92.60
2018-09-06T18:37:08.665Z,92.90
2018-09-06T18:39:37.004Z,93.00
2018-09-06T18:42:05.282Z,92.70
2018-09-06T18:44:33.602Z,93.00
2018-09-06T18:47:01.923Z,93.20
2018-09-06T18:49:30.234Z,93.00
2018-09-06T18:51:58.580Z,93.10
2018-09-06T18:54:26.881Z,93.20
2018-09-06T18:56:55.172Z,92.90
2018-09-06T18:59:23.697Z,93.10
2018-09-06T19:01:51.988Z,93.30
2018-09-06T19:04:20.291Z,93.20
2018-09-06T19:06:48.615Z,93.20
2018-09-06T19:09:17.022Z,93.20
2018-09-06T19:11:45.303Z,93.60
2018-09-06T19:14:13.658Z,93.50
2018-09-06T19:16:41.976Z,93.70
2018-09-06T19:19:10.307Z,93.80
2018-09-06T19:21:38.636Z,93.90
2018-09-06T19:24:06.987Z,93.60
2018-09-06T19:26:35.427Z,93.40
2018-09-06T19:29:03.736Z,93.40
2018-09-06T19:31:32.089Z,93.60
2018-09-06T19:34:00.436Z,94.10
2018-09-06T19:36:28.770Z,94.00
2018-09-06T19:38:57.129Z,94.60
2018-09-06T19:41:25.444Z,94.70
2018-09-06T19:43:53.781Z,94.80
2018-09-06T19:46:22.203Z,95.10
2018-09-06T19:48:51.032Z,94.60
2018-09-06T19:51:19.319Z,95.10
2018-09-06T19:53:47.632Z,94.80
2018-09-06T19:56:15.940Z,95.00
2018-09-06T19:58:44.277Z,95.30
2018-09-06T20:01:12.643Z,95.70
2018-09-06T20:03:40.939Z,95.80
